K2WX

Buffalo Airport

Buffalo, South Dakota, USA
METAR K2WX 191656Z AUTO 36012KT 15/10 A3019 RMK AO1 SLP215 T01500100
Observed Flight Rules
Aug-19 @ 16:56 UTC (18 minutes ago)
Wind
360° at 12 knots
Temperatures Readings
Current 15°C / 59°F
Dewpoint 10°C / 50°F
Humidity 72%
Altimeter 30.19" Hg
Pressure 1021.5 hPa
Elevation 915
METAR K2WX 191656Z AUTO 36012KT 15/10 A3019 RMK AO1 SLP215 T01500100
Observed Flight Rules
Aug-19 @ 16:56 UTC
(18 minutes ago)
Wind
360° at 12 knots
Temperature Dewpoint
15°C / 59°F 10°C / 50°F
Humidity Altimeter Pressure
72% 30.19" Hg 1021.5 hPa